Estación Meteorológica Peña el Pijo (Robertgarden) [ 09/25/17 15:18:18 CEST ]

Fecha Hora Presion(HPa) Temp (°C) Humedad % Rocio (°C) Viento ( m/s) Direccion Lluvia 1Hora(mm) Lluvia 24H(mm) LLuvia Total(mm)
2017-Jun-09 01:01:35 1010.000 16.6 66 10.2         1427.09
2017-Jun-09 02:01:27 1009.500 15.4 72 10.4         1427.09
2017-Jun-09 03:01:34 1008.900 14.9 75 10.5         1427.09
2017-Jun-09 04:01:32 1008.600 14.1 78 10.3         1427.09
2017-Jun-09 05:02:10 1008.600 13.9 79 10.3         1427.09
2017-Jun-09 06:01:31 1008.400 13.7 81 10.5         1427.09
2017-Jun-09 07:01:56 1009.000 13.6 81 10.4         1427.09
2017-Jun-09 08:01:55 1009.200 14.9 82 11.9         1427.09
2017-Jun-09 09:01:52 1009.500 20.8 77 16.6         1427.09
2017-Jun-09 10:01:57 1009.800 25.3 53 15.0         1427.09
2017-Jun-09 11:01:55 1009.900 29.1 39 13.8         1427.09
2017-Jun-09 12:01:37 1009.800 31.4 32 12.6         1427.09
2017-Jun-09 13:01:56 1009.700 32.9 28 11.9         1427.09
2017-Jun-09 14:01:32 1009.700 32.1 27 10.6         1427.09
2017-Jun-09 15:01:32 1009.200 34.6 25 11.5         1427.09
2017-Jun-09 16:01:48 1009.200 32.1 32 13.3         1427.09
2017-Jun-09 17:01:53 1009.400 31.6 33 13.3         1427.09
2017-Jun-09 18:01:59 1009.400 30.0 36 13.2         1427.09
2017-Jun-09 19:01:44 1009.400 28.3 40 13.5 1.9 S     1427.09
2017-Jun-09 20:01:47 1009.800 26.6 43 13.0         1427.09
2017-Jun-09 21:01:40 1009.900 24.4 45 11.7         1427.09
2017-Jun-09 22:01:41 1010.400 21.6 49 10.4         1427.09
2017-Jun-09 23:01:48 1011.500 18.6 61 10.9         1427.09

Temperatura Máxima:34°    Temperatura Mínima:13°
Presión Máxima:1011.500 Hpa    Presión Mínima:1008.400 Hpa


Volver